Time;durP1;ratioP1;P1;durP2;ratioP2;P2;SDS_P1;SDS_P2;PMS_P1;PMS_P2;Temp;Humidity;BMP_temperature;BMP_pressure;BME280_temperature;BME280_humidity;BME280_pressure;Samples;Min_cycle;Max_cycle;Signal;HPM_P1;HPM_P2
2022/05/30 00:00:50;;;;;;;;;;;8.20;99.90;;;;;;5076850;28;19908;-77
2022/05/30 00:03:18;;;;;;;;;;;8.20;99.90;;;;;;5077072;28;19911;-78
2022/05/30 00:05:46;;;;;;;;;;;8.20;99.90;;;;;;5075410;28;19950;-78
2022/05/30 00:08:12;;;;;;;;;;;8.10;99.90;;;;;;5076211;28;20330;-77
2022/05/30 00:10:37;;;;;;;;;;;8.10;99.90;;;;;;5076277;28;19905;-77
2022/05/30 00:13:03;;;;;;;;;;;8.00;99.90;;;;;;5075569;28;19930;-77
2022/05/30 00:15:29;;;;;;;;;;;8.10;99.90;;;;;;5076133;28;19908;-77
2022/05/30 00:17:56;;;;;;;;;;;7.90;99.90;;;;;;5076362;28;20007;-78
2022/05/30 00:20:21;;;;;;;;;;;7.90;99.90;;;;;;5076271;28;19940;-78
2022/05/30 00:22:47;;;;;;;;;;;7.90;99.90;;;;;;5076833;28;19905;-78
2022/05/30 00:25:13;;;;;;;;;;;8.00;99.90;;;;;;5082810;22;19924;-77
2022/05/30 00:27:38;;;;;;;;;;;8.20;99.90;;;;;;5058216;28;19904;-77
2022/05/30 00:30:04;;;;;;;;;;;8.00;99.90;;;;;;5076586;28;19971;-77
2022/05/30 00:32:31;;;;;;;;;;;8.00;99.90;;;;;;5076341;28;20297;-78
2022/05/30 00:34:57;;;;;;;;;;;8.00;99.90;;;;;;5060686;28;19913;-77
2022/05/30 00:37:22;;;;;;;;;;;8.10;99.90;;;;;;5062397;28;19966;-77
2022/05/30 00:39:48;;;;;;;;;;;8.10;99.90;;;;;;5062647;28;20262;-78
2022/05/30 00:42:15;;;;;;;;;;;8.10;99.90;;;;;;5062313;28;19905;-78
2022/05/30 00:44:42;;;;;;;;;;;8.10;99.90;;;;;;5080495;28;19912;-78
2022/05/30 00:47:08;;;;;;;;;;;8.10;99.90;;;;;;5080563;28;19913;-77
2022/05/30 00:49:34;;;;;;;;;;;8.20;99.90;;;;;;5080360;28;20425;-78
2022/05/30 00:52:05;;;;;;;;;;;8.00;99.90;;;;;;5079934;28;19948;-77
2022/05/30 00:54:35;;;;;;;;;;;8.00;99.90;;;;;;5061831;28;20404;-78
2022/05/30 00:57:20;;;;;;;;;;;8.10;99.90;;;;;;5079917;28;19904;-77
2022/05/30 01:00:05;;;;;;;;;;;8.10;99.90;;;;;;5079825;28;19905;-78
2022/05/30 01:02:33;;;;;;;;;;;8.10;99.90;;;;;;5079894;28;19913;-78
2022/05/30 01:07:44;;;;;;;;;;;8.10;99.90;;;;;;5080234;28;19916;-78
2022/05/30 01:10:11;;;;;;;;;;;8.10;99.90;;;;;;5079822;28;19905;-78
2022/05/30 01:12:44;;;;;;;;;;;8.10;99.90;;;;;;5080917;28;20358;-78
2022/05/30 01:15:11;;;;;;;;;;;8.10;99.90;;;;;;5080322;28;19919;-78
2022/05/30 01:17:50;;;;;;;;;;;8.10;99.90;;;;;;5079315;28;19904;-78
2022/05/30 01:20:35;;;;;;;;;;;8.20;99.90;;;;;;5080090;28;20016;-78
2022/05/30 01:23:04;;;;;;;;;;;8.20;99.90;;;;;;5079007;28;19927;-78
2022/05/30 01:25:43;;;;;;;;;;;8.10;99.90;;;;;;5079669;28;20003;-78
2022/05/30 01:28:22;;;;;;;;;;;8.10;99.90;;;;;;5061611;28;19943;-78
2022/05/30 01:30:48;;;;;;;;;;;8.00;99.90;;;;;;5079621;28;19904;-78
2022/05/30 01:33:14;;;;;;;;;;;8.00;99.90;;;;;;5061350;28;19917;-77
2022/05/30 01:35:40;;;;;;;;;;;7.90;99.90;;;;;;5061404;28;20004;-78
2022/05/30 01:38:06;;;;;;;;;;;7.90;99.90;;;;;;5079058;28;19904;-78
2022/05/30 01:40:32;;;;;;;;;;;7.90;99.90;;;;;;5078798;28;20256;-78
2022/05/30 01:42:57;;;;;;;;;;;7.90;99.90;;;;;;5079206;28;20060;-78
2022/05/30 01:45:24;;;;;;;;;;;7.90;99.90;;;;;;5078864;28;19904;-78
2022/05/30 01:47:50;;;;;;;;;;;7.90;99.90;;;;;;5078509;28;20441;-78
2022/05/30 01:50:15;;;;;;;;;;;8.00;99.90;;;;;;5079232;28;19904;-77
2022/05/30 01:52:41;;;;;;;;;;;8.00;99.90;;;;;;5060674;28;19953;-77
2022/05/30 01:55:07;;;;;;;;;;;8.00;99.90;;;;;;5078791;28;19974;-78
2022/05/30 01:57:32;;;;;;;;;;;8.00;99.90;;;;;;5077987;28;19978;-78
2022/05/30 02:00:01;;;;;;;;;;;8.00;99.90;;;;;;5078706;28;19904;-78
2022/05/30 02:02:26;;;;;;;;;;;8.00;99.90;;;;;;5078358;28;20413;-77
2022/05/30 02:04:53;;;;;;;;;;;8.00;99.90;;;;;;5079137;28;19904;-78
2022/05/30 02:07:18;;;;;;;;;;;7.90;99.90;;;;;;5078548;28;19904;-77
2022/05/30 02:09:44;;;;;;;;;;;7.90;99.90;;;;;;5079179;28;19904;-78
2022/05/30 02:12:10;;;;;;;;;;;8.00;99.90;;;;;;5078586;28;19908;-78
2022/05/30 02:14:36;;;;;;;;;;;8.00;99.90;;;;;;5078485;28;19923;-78
2022/05/30 02:17:01;;;;;;;;;;;8.00;99.90;;;;;;5077823;28;19948;-76
2022/05/30 02:19:35;;;;;;;;;;;8.00;99.90;;;;;;5077512;28;19909;-78
2022/05/30 02:22:00;;;;;;;;;;;8.00;99.90;;;;;;5058846;28;20322;-78
2022/05/30 02:24:26;;;;;;;;;;;8.00;99.90;;;;;;5076498;28;19973;-78
2022/05/30 02:26:52;;;;;;;;;;;8.00;99.90;;;;;;5077076;28;19913;-78
2022/05/30 02:29:18;;;;;;;;;;;8.00;99.90;;;;;;5059110;28;19905;-77
2022/05/30 02:31:45;;;;;;;;;;;8.00;99.90;;;;;;5077123;28;19909;-78
2022/05/30 02:36:55;;;;;;;;;;;7.90;99.90;;;;;;5077742;28;20000;-78
2022/05/30 02:39:21;;;;;;;;;;;7.90;99.90;;;;;;5077886;28;20343;-78
2022/05/30 02:41:47;;;;;;;;;;;7.90;99.90;;;;;;5059496;28;19928;-78
2022/05/30 02:44:20;;;;;;;;;;;7.90;99.90;;;;;;5077683;28;19908;-77
2022/05/30 02:46:46;;;;;;;;;;;7.90;99.90;;;;;;5077910;28;19946;-78
2022/05/30 02:49:12;;;;;;;;;;;8.00;99.90;;;;;;5077045;28;19915;-78
2022/05/30 02:51:37;;;;;;;;;;;8.00;99.90;;;;;;5059202;28;20307;-78
2022/05/30 02:54:03;;;;;;;;;;;8.00;99.90;;;;;;5077644;28;19923;-77
2022/05/30 02:56:29;;;;;;;;;;;7.90;99.90;;;;;;5059168;28;19905;-78
2022/05/30 02:58:57;;;;;;;;;;;7.90;99.90;;;;;;5075986;28;19946;-77
2022/05/30 03:01:22;;;;;;;;;;;7.90;99.90;;;;;;5077856;28;19947;-78
2022/05/30 03:03:48;;;;;;;;;;;7.80;99.90;;;;;;5077340;28;19912;-78
2022/05/30 03:06:13;;;;;;;;;;;7.80;99.90;;;;;;5077091;28;19947;-78
2022/05/30 03:08:39;;;;;;;;;;;7.90;99.90;;;;;;5076615;28;19908;-77
2022/05/30 03:11:04;;;;;;;;;;;7.90;99.90;;;;;;5077471;28;19958;-78
2022/05/30 03:13:30;;;;;;;;;;;7.90;99.90;;;;;;5075995;28;19944;-78
2022/05/30 03:15:56;;;;;;;;;;;7.90;99.90;;;;;;5077700;28;19995;-77
2022/05/30 03:18:21;;;;;;;;;;;7.90;99.90;;;;;;5058547;28;19999;-77
2022/05/30 03:20:47;;;;;;;;;;;7.90;99.90;;;;;;5059039;28;19962;-78
2022/05/30 03:23:12;;;;;;;;;;;7.90;99.90;;;;;;5058936;28;19978;-77
2022/05/30 03:25:38;;;;;;;;;;;7.90;99.90;;;;;;5058214;28;19924;-77
2022/05/30 03:28:03;;;;;;;;;;;7.90;99.90;;;;;;5076423;28;19904;-78
2022/05/30 03:30:29;;;;;;;;;;;7.90;99.90;;;;;;5058983;28;19905;-78
2022/05/30 03:32:54;;;;;;;;;;;8.00;99.90;;;;;;5076506;28;20283;-77
2022/05/30 03:35:20;;;;;;;;;;;8.00;99.90;;;;;;5058642;28;19962;-78
2022/05/30 03:37:46;;;;;;;;;;;8.00;99.90;;;;;;5076155;28;20334;-78
2022/05/30 03:40:13;;;;;;;;;;;8.00;99.90;;;;;;5076448;28;20007;-77
2022/05/30 03:42:39;;;;;;;;;;;7.90;99.90;;;;;;5058418;28;19947;-78
2022/05/30 03:45:05;;;;;;;;;;;8.00;99.90;;;;;;5058143;28;19923;-78
2022/05/30 03:47:38;;;;;;;;;;;8.00;99.90;;;;;;5076619;28;19915;-78
2022/05/30 03:50:04;;;;;;;;;;;7.90;99.90;;;;;;5075952;28;19900;-78
2022/05/30 03:52:30;;;;;;;;;;;7.90;99.90;;;;;;5076279;28;19905;-77
2022/05/30 03:54:56;;;;;;;;;;;7.60;99.90;;;;;;5075304;28;19913;-78
2022/05/30 03:57:22;;;;;;;;;;;7.60;99.90;;;;;;5075930;28;20344;-77
2022/05/30 03:59:48;;;;;;;;;;;7.60;99.90;;;;;;5075583;28;19911;-78
2022/05/30 04:02:13;;;;;;;;;;;7.70;99.90;;;;;;5076081;28;19911;-77
2022/05/30 04:04:39;;;;;;;;;;;7.70;99.90;;;;;;5075672;28;19904;-78
2022/05/30 04:07:05;;;;;;;;;;;7.80;99.90;;;;;;5075408;28;19912;-78
2022/05/30 04:09:30;;;;;;;;;;;7.80;99.90;;;;;;5076497;28;19944;-78
2022/05/30 04:11:56;;;;;;;;;;;7.80;99.90;;;;;;5079508;28;20359;-77
2022/05/30 04:14:21;;;;;;;;;;;7.80;99.90;;;;;;5079589;28;19923;-77
2022/05/30 04:16:47;;;;;;;;;;;7.80;99.90;;;;;;5061709;28;19915;-78
2022/05/30 04:19:12;;;;;;;;;;;7.80;99.90;;;;;;5079779;28;19912;-78
2022/05/30 04:21:38;;;;;;;;;;;7.80;99.90;;;;;;5061870;28;20241;-77
2022/05/30 04:24:04;;;;;;;;;;;7.80;99.90;;;;;;5079688;28;19904;-78
2022/05/30 04:26:30;;;;;;;;;;;7.80;99.90;;;;;;5079440;28;19916;-77
2022/05/30 04:28:55;;;;;;;;;;;7.90;99.90;;;;;;5078710;28;20306;-78
2022/05/30 04:31:21;;;;;;;;;;;7.80;99.90;;;;;;5079014;28;19904;-78
2022/05/30 04:33:46;;;;;;;;;;;7.70;99.90;;;;;;5077764;28;19952;-77
2022/05/30 04:36:13;;;;;;;;;;;7.80;99.90;;;;;;5078167;28;19904;-78
2022/05/30 04:38:38;;;;;;;;;;;7.80;99.90;;;;;;5078277;28;19908;-78
2022/05/30 04:41:04;;;;;;;;;;;7.80;99.90;;;;;;5078559;28;20256;-77
2022/05/30 04:43:30;;;;;;;;;;;7.70;99.90;;;;;;5060059;28;19910;-78
2022/05/30 04:46:15;;;;;;;;;;;7.80;99.90;;;;;;5060283;28;19904;-77
2022/05/30 04:48:42;;;;;;;;;;;7.80;99.90;;;;;;5085398;28;20010;-77
2022/05/30 04:51:07;;;;;;;;;;;7.80;99.90;;;;;;5087210;28;19904;-76
2022/05/30 04:53:33;;;;;;;;;;;7.90;99.90;;;;;;5084806;28;19935;-77
2022/05/30 04:55:58;;;;;;;;;;;7.90;99.90;;;;;;5081975;28;19911;-77
2022/05/30 04:58:24;;;;;;;;;;;8.00;99.90;;;;;;5081172;28;19904;-78
2022/05/30 05:00:49;;;;;;;;;;;8.10;99.90;;;;;;5062605;28;19908;-78
2022/05/30 05:03:15;;;;;;;;;;;8.30;99.90;;;;;;5050074;28;19933;-78
2022/05/30 05:05:41;;;;;;;;;;;8.30;99.90;;;;;;5079836;28;19904;-78
2022/05/30 05:08:26;;;;;;;;;;;8.70;99.90;;;;;;5085705;28;19904;-81
2022/05/30 05:10:52;;;;;;;;;;;9.10;99.90;;;;;;5076057;28;19912;-81
2022/05/30 05:13:17;;;;;;;;;;;9.10;99.90;;;;;;5070571;28;19917;-78
2022/05/30 05:15:43;;;;;;;;;;;9.20;99.90;;;;;;5080790;28;19904;-78
2022/05/30 05:18:08;;;;;;;;;;;9.10;99.90;;;;;;5065129;28;19930;-81
2022/05/30 05:20:38;;;;;;;;;;;9.20;99.90;;;;;;5063474;28;19904;-77
2022/05/30 05:23:03;;;;;;;;;;;9.40;99.90;;;;;;5080850;28;19905;-78
2022/05/30 05:25:29;;;;;;;;;;;9.50;99.90;;;;;;5062176;28;20027;-78
2022/05/30 05:27:54;;;;;;;;;;;9.60;99.90;;;;;;5080605;28;19904;-78
2022/05/30 05:30:20;;;;;;;;;;;9.60;99.90;;;;;;5079961;28;19912;-77
2022/05/30 05:32:46;;;;;;;;;;;9.70;99.90;;;;;;5061814;28;19908;-78
2022/05/30 05:35:11;;;;;;;;;;;9.80;99.90;;;;;;5079659;28;19955;-78
2022/05/30 05:37:37;;;;;;;;;;;9.90;99.90;;;;;;5079640;28;19905;-78
2022/05/30 05:40:03;;;;;;;;;;;10.00;99.90;;;;;;5061783;28;19904;-78
2022/05/30 05:42:28;;;;;;;;;;;10.20;99.90;;;;;;5060321;28;19912;-77
2022/05/30 05:44:54;;;;;;;;;;;10.20;99.90;;;;;;5061265;28;19911;-79
2022/05/30 05:47:20;;;;;;;;;;;10.30;99.90;;;;;;5079697;28;19991;-77
2022/05/30 05:49:46;;;;;;;;;;;10.40;99.90;;;;;;5078405;28;19912;-77
2022/05/30 05:52:11;;;;;;;;;;;10.40;99.90;;;;;;5057971;28;19915;-78
2022/05/30 05:54:37;;;;;;;;;;;10.40;99.90;;;;;;5075179;28;19916;-78
2022/05/30 05:57:03;;;;;;;;;;;10.50;99.90;;;;;;5075752;28;19904;-78
2022/05/30 05:59:28;;;;;;;;;;;10.60;99.90;;;;;;5057691;28;19911;-78
2022/05/30 06:01:54;;;;;;;;;;;10.60;99.90;;;;;;5074651;28;20278;-78
2022/05/30 06:04:19;;;;;;;;;;;10.70;99.90;;;;;;5074676;28;19954;-78
2022/05/30 06:06:45;;;;;;;;;;;10.80;99.90;;;;;;5074380;28;19958;-78
2022/05/30 06:09:10;;;;;;;;;;;11.00;99.90;;;;;;5074418;28;20273;-78
2022/05/30 06:11:36;;;;;;;;;;;11.10;99.90;;;;;;5056479;28;20256;-78
2022/05/30 06:14:01;;;;;;;;;;;11.20;99.90;;;;;;5074575;28;19959;-77
2022/05/30 06:16:28;;;;;;;;;;;11.30;99.90;;;;;;5074287;28;19905;-77
2022/05/30 06:18:55;;;;;;;;;;;11.40;99.90;;;;;;5074120;28;19916;-76
2022/05/30 06:21:22;;;;;;;;;;;11.40;99.90;;;;;;5074383;28;19904;-77
2022/05/30 06:23:48;;;;;;;;;;;11.60;99.90;;;;;;5074037;28;19904;-77
2022/05/30 06:26:14;;;;;;;;;;;11.90;99.90;;;;;;5073693;28;20489;-77
2022/05/30 06:28:40;;;;;;;;;;;12.00;99.90;;;;;;5073855;28;19908;-77
2022/05/30 06:31:11;;;;;;;;;;;12.20;99.90;;;;;;5055798;28;19900;-78
2022/05/30 06:33:36;;;;;;;;;;;12.50;99.90;;;;;;5073722;28;19912;-77
2022/05/30 06:36:05;;;;;;;;;;;12.80;99.90;;;;;;5073711;28;19904;-77
2022/05/30 06:38:31;;;;;;;;;;;13.10;99.90;;;;;;5073621;28;19939;-77
2022/05/30 06:40:56;;;;;;;;;;;13.30;99.90;;;;;;5073661;28;19973;-77
2022/05/30 06:43:22;;;;;;;;;;;13.30;99.90;;;;;;5073397;28;19908;-77
2022/05/30 06:45:48;;;;;;;;;;;13.20;99.90;;;;;;5073568;28;20346;-77
2022/05/30 06:48:14;;;;;;;;;;;13.10;99.90;;;;;;5073395;28;19905;-77
2022/05/30 06:50:40;;;;;;;;;;;13.10;99.90;;;;;;5055567;28;19904;-76
2022/05/30 06:53:06;;;;;;;;;;;13.20;99.90;;;;;;5055508;28;20004;-76
2022/05/30 06:55:32;;;;;;;;;;;13.40;99.90;;;;;;5073052;28;19904;-77
2022/05/30 06:58:12;;;;;;;;;;;13.60;99.90;;;;;;5072806;28;19904;-77
2022/05/30 07:00:38;;;;;;;;;;;13.80;99.90;;;;;;5073040;28;19957;-77
2022/05/30 07:03:03;;;;;;;;;;;13.90;99.90;;;;;;5073160;28;19908;-77
2022/05/30 07:05:29;;;;;;;;;;;13.90;99.90;;;;;;5073011;28;20306;-76
2022/05/30 07:07:56;;;;;;;;;;;14.00;99.90;;;;;;5073077;28;19904;-77
2022/05/30 07:10:22;;;;;;;;;;;14.00;99.90;;;;;;5055164;28;19934;-80
2022/05/30 07:12:47;;;;;;;;;;;14.10;99.90;;;;;;5072878;28;19905;-76
2022/05/30 07:15:13;;;;;;;;;;;14.00;99.90;;;;;;5072909;28;19912;-76
2022/05/30 07:17:39;;;;;;;;;;;14.10;99.90;;;;;;5072819;28;19904;-76
2022/05/30 07:20:04;;;;;;;;;;;14.10;99.90;;;;;;5072993;28;19999;-76
2022/05/30 07:22:30;;;;;;;;;;;14.50;99.90;;;;;;5073192;28;20308;-77
2022/05/30 07:24:55;;;;;;;;;;;14.70;99.90;;;;;;5072791;28;19918;-77
2022/05/30 07:27:21;;;;;;;;;;;15.00;99.90;;;;;;5072971;28;19912;-77
2022/05/30 07:29:46;;;;;;;;;;;15.00;99.90;;;;;;5072897;28;19947;-77
2022/05/30 07:32:12;;;;;;;;;;;15.20;99.90;;;;;;5072912;28;20002;-76
2022/05/30 07:34:38;;;;;;;;;;;15.30;99.90;;;;;;5072815;28;20024;-78
2022/05/30 07:37:04;;;;;;;;;;;15.20;98.90;;;;;;5072865;28;19904;-77
2022/05/30 07:39:29;;;;;;;;;;;15.20;99.50;;;;;;5072869;28;19911;-77
2022/05/30 07:41:55;;;;;;;;;;;15.10;98.50;;;;;;5055207;28;19943;-77
2022/05/30 07:44:21;;;;;;;;;;;15.10;99.90;;;;;;5072260;28;19904;-77
2022/05/30 07:46:46;;;;;;;;;;;15.20;98.80;;;;;;5072614;28;19911;-77
2022/05/30 07:49:12;;;;;;;;;;;15.60;99.90;;;;;;5072723;28;19904;-77
2022/05/30 07:51:38;;;;;;;;;;;15.70;99.90;;;;;;5072888;28;19916;-77
2022/05/30 07:54:04;;;;;;;;;;;15.70;99.90;;;;;;5072648;28;19922;-77
2022/05/30 07:56:30;;;;;;;;;;;15.70;99.90;;;;;;5054557;28;20276;-77
2022/05/30 07:58:55;;;;;;;;;;;15.70;99.90;;;;;;5072512;28;19904;-77
2022/05/30 08:01:21;;;;;;;;;;;15.60;99.20;;;;;;5072691;28;19911;-77
2022/05/30 08:03:47;;;;;;;;;;;15.60;99.30;;;;;;5072627;28;20038;-77
2022/05/30 08:06:14;;;;;;;;;;;15.60;97.60;;;;;;5072581;28;19904;-77
2022/05/30 08:08:40;;;;;;;;;;;15.60;98.60;;;;;;5072450;28;19904;-77
2022/05/30 08:11:06;;;;;;;;;;;15.20;95.40;;;;;;5072624;28;19992;-77
2022/05/30 08:13:32;;;;;;;;;;;15.10;96.60;;;;;;5054550;28;19963;-77
2022/05/30 08:15:57;;;;;;;;;;;15.10;96.90;;;;;;5072447;28;19950;-81
2022/05/30 08:18:23;;;;;;;;;;;15.20;96.90;;;;;;5054320;28;19904;-81
2022/05/30 08:20:49;;;;;;;;;;;15.50;97.80;;;;;;5054717;28;19911;-82
2022/05/30 08:23:15;;;;;;;;;;;15.50;97.50;;;;;;5071840;28;20329;-81
2022/05/30 08:25:40;;;;;;;;;;;15.70;97.00;;;;;;5050304;28;19923;-81
2022/05/30 08:28:06;;;;;;;;;;;15.80;94.60;;;;;;5051209;28;19962;-82
2022/05/30 08:30:32;;;;;;;;;;;15.60;94.20;;;;;;5052358;28;19905;-81
2022/05/30 08:32:57;;;;;;;;;;;15.60;94.10;;;;;;5050988;28;19904;-81
2022/05/30 08:35:23;;;;;;;;;;;15.60;94.10;;;;;;5050674;28;20348;-77
2022/05/30 08:37:49;;;;;;;;;;;15.50;93.90;;;;;;5052027;28;20364;-77
2022/05/30 08:43:10;;;;;;;;;;;15.50;94.50;;;;;;5052025;28;19939;-77
2022/05/30 08:45:36;;;;;;;;;;;15.50;94.00;;;;;;5052010;28;20276;-77
2022/05/30 08:48:02;;;;;;;;;;;15.50;93.60;;;;;;5054141;28;19931;-78
2022/05/30 08:50:51;;;;;;;;;;;15.40;94.70;;;;;;5051709;28;20344;-79
2022/05/30 08:53:40;;;;;;;;;;;15.40;93.80;;;;;;5051737;28;19920;-79
2022/05/30 08:56:12;;;;;;;;;;;15.50;94.10;;;;;;5045383;28;19975;-79
2022/05/30 08:58:56;;;;;;;;;;;15.70;93.50;;;;;;5055599;28;20260;-78
2022/05/30 09:01:33;;;;;;;;;;;15.80;93.10;;;;;;5055745;28;19995;-79
2022/05/30 09:04:11;;;;;;;;;;;15.80;90.90;;;;;;5055070;28;19904;-79
2022/05/30 09:06:56;;;;;;;;;;;15.80;91.20;;;;;;5055145;28;19911;-79
2022/05/30 09:09:24;;;;;;;;;;;15.80;92.20;;;;;;5055364;28;20352;-80
2022/05/30 09:11:53;;;;;;;;;;;15.80;91.90;;;;;;5054456;28;20279;-78
2022/05/30 09:14:21;;;;;;;;;;;15.70;92.20;;;;;;5055740;28;19913;-79
2022/05/30 09:16:55;;;;;;;;;;;15.70;92.30;;;;;;5054237;28;19959;-79
2022/05/30 09:19:23;;;;;;;;;;;15.70;92.30;;;;;;5054253;28;19904;-80
2022/05/30 09:21:48;;;;;;;;;;;15.90;91.90;;;;;;5054139;28;20256;-80
2022/05/30 09:24:15;;;;;;;;;;;16.00;92.70;;;;;;5055530;28;19905;-80
2022/05/30 09:26:40;;;;;;;;;;;16.00;91.70;;;;;;5054082;28;19964;-79
2022/05/30 09:29:10;;;;;;;;;;;15.80;91.50;;;;;;5055397;28;19944;-80
2022/05/30 09:31:39;;;;;;;;;;;15.90;93.20;;;;;;5055289;28;19912;-80
2022/05/30 09:34:23;;;;;;;;;;;15.90;91.90;;;;;;5055196;28;20237;-79
2022/05/30 09:36:51;;;;;;;;;;;16.00;91.50;;;;;;5053790;28;19915;-80
2022/05/30 09:39:17;;;;;;;;;;;16.00;90.80;;;;;;5055093;28;19923;-82
2022/05/30 09:41:43;;;;;;;;;;;16.00;91.80;;;;;;5053794;28;20363;-81
2022/05/30 09:44:08;;;;;;;;;;;16.10;91.00;;;;;;5054944;28;19908;-81
2022/05/30 09:46:36;;;;;;;;;;;16.20;90.90;;;;;;5053638;28;20003;-81
2022/05/30 09:49:04;;;;;;;;;;;16.30;90.40;;;;;;5053727;28;19901;-80
2022/05/30 09:51:50;;;;;;;;;;;16.50;89.90;;;;;;5054269;28;19908;-78
2022/05/30 09:54:25;;;;;;;;;;;16.50;88.00;;;;;;5053798;28;19920;-77
2022/05/30 09:56:57;;;;;;;;;;;16.70;86.60;;;;;;5054755;28;19931;-77
2022/05/30 09:59:29;;;;;;;;;;;16.80;84.80;;;;;;5054692;28;19912;-77
2022/05/30 10:01:55;;;;;;;;;;;16.90;83.30;;;;;;5054485;28;19999;-77
2022/05/30 10:04:44;;;;;;;;;;;16.80;81.30;;;;;;5054437;28;20275;-77
2022/05/30 10:07:15;;;;;;;;;;;16.90;82.70;;;;;;5053687;28;19908;-77
2022/05/30 10:09:52;;;;;;;;;;;16.90;80.90;;;;;;5054256;28;19955;-77
2022/05/30 10:12:33;;;;;;;;;;;16.90;83.60;;;;;;5052938;28;19995;-77
2022/05/30 10:14:58;;;;;;;;;;;16.80;84.20;;;;;;5054022;28;20388;-77
2022/05/30 10:17:31;;;;;;;;;;;16.80;83.60;;;;;;5054017;28;19932;-78
2022/05/30 10:19:57;;;;;;;;;;;16.90;85.10;;;;;;5052903;28;19920;-77
2022/05/30 10:28:22;;;;;;;;;;;17.20;88.20;;;;;;5073891;28;19930;-77
2022/05/30 10:31:01;;;;;;;;;;;17.30;86.80;;;;;;5073925;28;19904;-77
2022/05/30 10:33:45;;;;;;;;;;;17.30;89.70;;;;;;5055762;28;19916;-77
2022/05/30 10:36:17;;;;;;;;;;;17.40;90.60;;;;;;5055640;28;19958;-77
2022/05/30 10:38:54;;;;;;;;;;;17.50;89.30;;;;;;5073619;28;19957;-77
2022/05/30 10:41:21;;;;;;;;;;;17.60;90.20;;;;;;5073561;28;19950;-77
2022/05/30 10:43:46;;;;;;;;;;;17.60;88.00;;;;;;5073619;28;19911;-77
2022/05/30 10:46:18;;;;;;;;;;;17.50;87.60;;;;;;5055554;28;19904;-76
2022/05/30 10:48:51;;;;;;;;;;;17.60;90.10;;;;;;5073490;28;19904;-77
2022/05/30 10:51:22;;;;;;;;;;;17.50;88.70;;;;;;5055491;28;20010;-78
2022/05/30 10:53:54;;;;;;;;;;;17.60;90.20;;;;;;5073441;28;19916;-79
2022/05/30 10:56:21;;;;;;;;;;;17.50;89.30;;;;;;5073604;28;20320;-78
2022/05/30 10:58:47;;;;;;;;;;;17.60;87.90;;;;;;5073393;28;19905;-78
2022/05/30 11:01:18;;;;;;;;;;;17.70;89.10;;;;;;5073308;28;19911;-77
2022/05/30 11:03:47;;;;;;;;;;;17.80;88.50;;;;;;5073323;28;19995;-77
2022/05/30 11:06:23;;;;;;;;;;;17.90;89.00;;;;;;5073458;28;20022;-77
2022/05/30 11:08:51;;;;;;;;;;;18.00;84.70;;;;;;5072767;28;19961;-77
2022/05/30 11:11:19;;;;;;;;;;;18.20;85.10;;;;;;5073031;28;19905;-77
2022/05/30 11:13:50;;;;;;;;;;;18.40;85.60;;;;;;5072682;28;19912;-77
2022/05/30 11:16:28;;;;;;;;;;;18.50;85.80;;;;;;5072883;28;19948;-78
2022/05/30 11:19:02;;;;;;;;;;;18.60;81.60;;;;;;5071678;28;19973;-77
2022/05/30 11:21:27;;;;;;;;;;;18.60;82.50;;;;;;5072741;28;19991;-77
2022/05/30 11:23:52;;;;;;;;;;;18.70;83.10;;;;;;5054685;28;19959;-78
2022/05/30 11:26:40;;;;;;;;;;;18.70;81.20;;;;;;5072414;28;19969;-77
2022/05/30 11:29:14;;;;;;;;;;;18.70;80.90;;;;;;5072537;28;19950;-78
2022/05/30 11:31:58;;;;;;;;;;;18.70;78.70;;;;;;5072613;28;19962;-78
2022/05/30 11:34:34;;;;;;;;;;;18.70;78.20;;;;;;5072517;28;19934;-78
2022/05/30 11:37:13;;;;;;;;;;;18.70;78.50;;;;;;5072630;28;19912;-78
2022/05/30 11:39:45;;;;;;;;;;;18.60;79.80;;;;;;5072754;28;19904;-78
2022/05/30 11:42:29;;;;;;;;;;;18.70;79.10;;;;;;5072733;28;19931;-78
2022/05/30 11:44:57;;;;;;;;;;;18.90;80.00;;;;;;5072853;28;19904;-78
2022/05/30 11:47:30;;;;;;;;;;;18.90;78.50;;;;;;5072487;28;19958;-78
2022/05/30 11:50:14;;;;;;;;;;;19.00;80.90;;;;;;5072246;28;19908;-78
2022/05/30 11:52:57;;;;;;;;;;;18.80;80.60;;;;;;5072620;28;20287;-78
2022/05/30 11:55:27;;;;;;;;;;;18.90;80.60;;;;;;5072449;28;20355;-78
2022/05/30 11:58:14;;;;;;;;;;;19.10;80.10;;;;;;5072486;28;19911;-78
2022/05/30 12:00:43;;;;;;;;;;;19.00;79.40;;;;;;5072579;28;20267;-78
2022/05/30 12:03:14;;;;;;;;;;;18.80;81.30;;;;;;5072484;28;19909;-78
2022/05/30 12:05:59;;;;;;;;;;;18.70;80.50;;;;;;5072424;28;20375;-78
2022/05/30 12:08:43;;;;;;;;;;;18.70;79.80;;;;;;5072443;28;19911;-78
2022/05/30 12:11:14;;;;;;;;;;;18.80;78.20;;;;;;5072549;28;19908;-78
2022/05/30 12:13:56;;;;;;;;;;;18.80;78.20;;;;;;5072265;28;19919;-78
2022/05/30 12:16:22;;;;;;;;;;;18.70;77.50;;;;;;5072591;28;19914;-78
2022/05/30 12:24:30;;;;;;;;;;;18.90;78.90;;;;;;5072595;28;19919;-78
2022/05/30 12:26:58;;;;;;;;;;;19.10;77.70;;;;;;5072232;28;20359;-78
2022/05/30 12:29:39;;;;;;;;;;;19.10;78.20;;;;;;5072326;28;19904;-78
2022/05/30 12:32:07;;;;;;;;;;;19.00;76.70;;;;;;5075965;28;19911;-78
2022/05/30 12:34:51;;;;;;;;;;;19.00;77.90;;;;;;5076279;28;20053;-78
2022/05/30 12:37:17;;;;;;;;;;;19.20;77.00;;;;;;5076156;28;19904;-78
2022/05/30 12:39:42;;;;;;;;;;;19.20;76.60;;;;;;5076132;28;19908;-77
2022/05/30 12:42:25;;;;;;;;;;;19.30;77.20;;;;;;5076065;28;19908;-78
2022/05/30 12:44:54;;;;;;;;;;;19.20;78.10;;;;;;5075963;28;19908;-77
2022/05/30 12:47:26;;;;;;;;;;;19.20;77.40;;;;;;5075883;28;19983;-78
2022/05/30 12:50:12;;;;;;;;;;;19.20;76.80;;;;;;5076141;28;19904;-78
2022/05/30 12:52:51;;;;;;;;;;;19.20;79.20;;;;;;5075689;28;19904;-78
2022/05/30 12:55:30;;;;;;;;;;;19.20;77.80;;;;;;5075709;28;19912;-77
2022/05/30 12:57:55;;;;;;;;;;;19.10;76.50;;;;;;5075864;28;19904;-78
2022/05/30 13:00:21;;;;;;;;;;;19.00;75.30;;;;;;5075879;28;19905;-77
2022/05/30 13:02:49;;;;;;;;;;;18.90;76.80;;;;;;5075284;28;19958;-78
2022/05/30 13:05:33;;;;;;;;;;;18.90;77.10;;;;;;5075451;28;19914;-78
2022/05/30 13:07:59;;;;;;;;;;;18.80;77.30;;;;;;5075177;28;19911;-78
2022/05/30 13:10:35;;;;;;;;;;;18.80;77.30;;;;;;5075193;28;20003;-78
2022/05/30 13:13:06;;;;;;;;;;;18.80;76.20;;;;;;5075266;28;19909;-78
2022/05/30 13:15:47;;;;;;;;;;;19.00;78.70;;;;;;5075392;28;20011;-78
2022/05/30 13:18:18;;;;;;;;;;;18.90;76.50;;;;;;5074656;28;19904;-77
2022/05/30 13:20:47;;;;;;;;;;;18.90;77.00;;;;;;5075388;28;19926;-77
2022/05/30 13:23:15;;;;;;;;;;;18.90;78.10;;;;;;5075415;28;19944;-77
2022/05/30 13:25:47;;;;;;;;;;;18.80;76.90;;;;;;5075136;28;19935;-77
2022/05/30 13:28:23;;;;;;;;;;;18.90;76.60;;;;;;5075276;28;19909;-77
2022/05/30 13:30:49;;;;;;;;;;;18.90;76.20;;;;;;5074834;28;19901;-77
2022/05/30 13:33:20;;;;;;;;;;;18.80;75.50;;;;;;5074939;28;20380;-78
2022/05/30 13:35:46;;;;;;;;;;;18.80;78.50;;;;;;5075214;28;19904;-77
2022/05/30 13:38:13;;;;;;;;;;;18.90;77.60;;;;;;5057075;28;20037;-77
2022/05/30 13:40:39;;;;;;;;;;;19.10;73.70;;;;;;5057104;28;19904;-77
2022/05/30 13:43:06;;;;;;;;;;;19.20;74.20;;;;;;5074064;28;19908;-77
2022/05/30 13:45:39;;;;;;;;;;;19.10;72.50;;;;;;5074938;28;19909;-78
2022/05/30 13:48:09;;;;;;;;;;;19.10;74.10;;;;;;5074809;28;19904;-77
2022/05/30 13:50:49;;;;;;;;;;;19.00;72.80;;;;;;5074899;28;20382;-77
2022/05/30 13:53:16;;;;;;;;;;;18.90;74.90;;;;;;5074705;28;19927;-78
2022/05/30 13:55:50;;;;;;;;;;;18.70;77.00;;;;;;5074861;28;19904;-77
2022/05/30 13:58:16;;;;;;;;;;;18.70;75.80;;;;;;5056659;28;20374;-78
2022/05/30 14:00:41;;;;;;;;;;;18.60;76.00;;;;;;5074669;28;19911;-78
2022/05/30 14:03:08;;;;;;;;;;;18.60;73.90;;;;;;5074737;28;20014;-77
2022/05/30 14:05:38;;;;;;;;;;;18.50;73.20;;;;;;5074522;28;20352;-78
2022/05/30 14:08:06;;;;;;;;;;;18.50;76.20;;;;;;5074542;28;19908;-78
2022/05/30 14:10:36;;;;;;;;;;;18.50;75.90;;;;;;5074690;28;19905;-77
2022/05/30 14:13:01;;;;;;;;;;;18.40;77.00;;;;;;5074555;28;20001;-77
2022/05/30 14:15:29;;;;;;;;;;;18.30;78.50;;;;;;5074428;28;20443;-77
2022/05/30 14:17:55;;;;;;;;;;;18.20;79.60;;;;;;5074395;28;19904;-77
2022/05/30 14:20:21;;;;;;;;;;;18.20;79.80;;;;;;5074271;28;19904;-77
2022/05/30 14:22:53;;;;;;;;;;;18.00;77.60;;;;;;5074205;28;19904;-77
2022/05/30 14:25:39;;;;;;;;;;;18.10;78.60;;;;;;5074170;28;19920;-77
2022/05/30 14:28:08;;;;;;;;;;;18.00;80.20;;;;;;5073437;28;19913;-77
2022/05/30 14:30:35;;;;;;;;;;;18.00;80.80;;;;;;5056141;28;19908;-77
2022/05/30 14:33:26;;;;;;;;;;;18.00;80.70;;;;;;5074365;28;19905;-78
2022/05/30 14:35:52;;;;;;;;;;;18.00;79.80;;;;;;5074026;28;20390;-77
2022/05/30 14:38:24;;;;;;;;;;;17.90;78.60;;;;;;5055989;28;20322;-77
2022/05/30 14:40:50;;;;;;;;;;;17.90;79.40;;;;;;5073984;28;20312;-77
2022/05/30 14:43:22;;;;;;;;;;;18.10;80.40;;;;;;5073827;28;19966;-77
2022/05/30 14:45:59;;;;;;;;;;;18.40;81.70;;;;;;5073792;28;19905;-77
2022/05/30 14:48:24;;;;;;;;;;;18.50;80.30;;;;;;5073510;28;19912;-78
2022/05/30 14:50:51;;;;;;;;;;;18.50;81.20;;;;;;5073801;28;20018;-77